TWB625 RKPC-RKSS
Flight info
| Callsign | TWB625 |
|---|---|
| Flight time | 0h 51m |
| Altitude | 27000 |
| Route | KAMIT Y722 OLMEN |
| Aircraft | B77W/H-VGDW/C |
Departure
| Time | 2026-05-01 09:31 |
|---|---|
| Airport | Jeju International Airport (RKPC) |
Arrival
| Time | 2026-05-01 10:22 |
|---|---|
| Airport | Gimpo International Airport (RKSS) |
| Time | Latitude | Longitude | Altitude | Speed | Heading |
|---|---|---|---|---|---|
| 2026-05-01 09:11 | 33.50812 | 126.49543 | 103 ft | 0 kts | 201° |
| 2026-05-01 09:22 | 33.50818 | 126.49546 | 102 ft | 2 kts | 201° |
| 2026-05-01 09:22 | 33.50847 | 126.49558 | 100 ft | 2 kts | 206° |
| 2026-05-01 09:23 | 33.50859 | 126.49568 | 100 ft | 2 kts | 222° |
| 2026-05-01 09:23 | 33.50877 | 126.49596 | 100 ft | 2 kts | 249° |
| 2026-05-01 09:24 | 33.50882 | 126.49631 | 102 ft | 2 kts | 276° |
| 2026-05-01 09:24 | 33.50879 | 126.49649 | 104 ft | 2 kts | 289° |
| 2026-05-01 09:24 | 33.50871 | 126.49670 | 105 ft | 0 kts | 302° |
| 2026-05-01 09:26 | 33.50872 | 126.49667 | 105 ft | 1 kts | 302° |
| 2026-05-01 09:27 | 33.50918 | 126.49580 | 99 ft | 11 kts | 305° |
| 2026-05-01 09:27 | 33.50953 | 126.49534 | 99 ft | 6 kts | 328° |
| 2026-05-01 09:27 | 33.50999 | 126.49544 | 98 ft | 9 kts | 40° |
| 2026-05-01 09:28 | 33.51056 | 126.49605 | 98 ft | 12 kts | 35° |
| 2026-05-01 09:28 | 33.51153 | 126.49651 | 94 ft | 16 kts | 18° |
| 2026-05-01 09:28 | 33.51251 | 126.49696 | 94 ft | 13 kts | 37° |
| 2026-05-01 09:28 | 33.51308 | 126.49782 | 94 ft | 13 kts | 57° |
| 2026-05-01 09:29 | 33.51429 | 126.49787 | 94 ft | 9 kts | 329° |
| 2026-05-01 09:29 | 33.51469 | 126.49751 | 93 ft | 5 kts | 295° |
| 2026-05-01 09:30 | 33.51464 | 126.49721 | 93 ft | 0 kts | 238° |
| 2026-05-01 09:30 | 33.51453 | 126.49699 | 93 ft | 12 kts | 238° |
| 2026-05-01 09:31 | 33.51247 | 126.49299 | 93 ft | 100 kts | 239° |
| 2026-05-01 09:31 | 33.50747 | 126.48318 | 201 ft | 165 kts | 241° |
| 2026-05-01 09:31 | 33.49684 | 126.46259 | 1662 ft | 189 kts | 240° |
| 2026-05-01 09:32 | 33.49011 | 126.44955 | 2626 ft | 183 kts | 240° |
| 2026-05-01 09:32 | 33.47682 | 126.42382 | 3925 ft | 193 kts | 242° |
| 2026-05-01 09:32 | 33.46948 | 126.40944 | 4451 ft | 209 kts | 243° |
| 2026-05-01 09:33 | 33.46153 | 126.39391 | 5026 ft | 225 kts | 244° |
| 2026-05-01 09:33 | 33.45335 | 126.37733 | 5575 ft | 240 kts | 251° |
| 2026-05-01 09:33 | 33.45400 | 126.33700 | 6728 ft | 256 kts | 299° |
| 2026-05-01 09:34 | 33.46537 | 126.32077 | 7569 ft | 259 kts | 322° |
| 2026-05-01 09:34 | 33.48157 | 126.31118 | 8371 ft | 264 kts | 338° |
| 2026-05-01 09:34 | 33.51681 | 126.29678 | 10016 ft | 271 kts | 340° |
| 2026-05-01 09:35 | 33.53507 | 126.28941 | 10611 ft | 284 kts | 340° |
| 2026-05-01 09:35 | 33.57485 | 126.27334 | 11678 ft | 314 kts | 341° |
| 2026-05-01 09:35 | 33.59541 | 126.26504 | 12584 ft | 316 kts | 341° |
| 2026-05-01 09:36 | 33.61644 | 126.25655 | 13511 ft | 320 kts | 341° |
| 2026-05-01 09:36 | 33.63745 | 126.24844 | 14427 ft | 324 kts | 346° |
| 2026-05-01 09:36 | 33.66008 | 126.24676 | 15393 ft | 331 kts | 3° |
| 2026-05-01 09:36 | 33.68289 | 126.25376 | 16362 ft | 341 kts | 19° |
| 2026-05-01 09:37 | 33.70312 | 126.26855 | 17237 ft | 355 kts | 35° |
| 2026-05-01 09:37 | 33.73284 | 126.31823 | 18827 ft | 381 kts | 53° |
| 2026-05-01 09:37 | 33.74674 | 126.34611 | 19596 ft | 388 kts | 51° |
| 2026-05-01 09:38 | 33.77593 | 126.40173 | 21119 ft | 400 kts | 49° |
| 2026-05-01 09:38 | 33.79114 | 126.42995 | 21812 ft | 406 kts | 49° |
| 2026-05-01 09:38 | 33.80689 | 126.45889 | 22491 ft | 413 kts | 48° |
| 2026-05-01 09:39 | 33.83897 | 126.51746 | 23781 ft | 425 kts | 47° |
| 2026-05-01 09:39 | 33.85538 | 126.54730 | 24450 ft | 432 kts | 47° |
| 2026-05-01 09:39 | 33.87196 | 126.57739 | 25110 ft | 438 kts | 47° |
| 2026-05-01 09:40 | 33.88896 | 126.60825 | 25774 ft | 445 kts | 47° |
| 2026-05-01 09:40 | 33.92233 | 126.66724 | 26959 ft | 449 kts | 41° |
| 2026-05-01 09:40 | 33.94381 | 126.69493 | 27120 ft | 456 kts | 32° |
| 2026-05-01 09:41 | 33.96912 | 126.71815 | 27139 ft | 462 kts | 22° |
| 2026-05-01 09:41 | 34.02582 | 126.74775 | 27039 ft | 428 kts | 4° |
| 2026-05-01 09:41 | 34.05484 | 126.75392 | 27030 ft | 416 kts | 355° |
| 2026-05-01 09:42 | 34.08346 | 126.75636 | 27029 ft | 412 kts | 354° |
| 2026-05-01 09:42 | 34.11201 | 126.75855 | 27013 ft | 412 kts | 354° |
| 2026-05-01 09:42 | 34.16931 | 126.76358 | 26996 ft | 410 kts | 355° |
| 2026-05-01 09:43 | 34.22613 | 126.76912 | 26994 ft | 409 kts | 355° |
| 2026-05-01 09:43 | 34.25448 | 126.77197 | 26994 ft | 409 kts | 355° |
| 2026-05-01 09:43 | 34.28273 | 126.77486 | 26992 ft | 409 kts | 355° |
| 2026-05-01 09:44 | 34.33948 | 126.78078 | 26988 ft | 409 kts | 355° |
| 2026-05-01 09:44 | 34.36786 | 126.78377 | 26985 ft | 409 kts | 355° |
| 2026-05-01 09:44 | 34.39652 | 126.78680 | 26982 ft | 408 kts | 355° |
| 2026-05-01 09:45 | 34.42461 | 126.78976 | 26979 ft | 408 kts | 355° |
| 2026-05-01 09:45 | 34.48109 | 126.79575 | 26972 ft | 408 kts | 355° |
| 2026-05-01 09:45 | 34.50953 | 126.79876 | 26970 ft | 408 kts | 355° |
| 2026-05-01 09:46 | 34.53770 | 126.80177 | 26969 ft | 408 kts | 355° |
| 2026-05-01 09:46 | 34.56623 | 126.80482 | 26968 ft | 408 kts | 355° |
| 2026-05-01 09:46 | 34.59435 | 126.80784 | 26967 ft | 408 kts | 355° |
| 2026-05-01 09:46 | 34.62276 | 126.81090 | 26966 ft | 407 kts | 355° |
| 2026-05-01 09:47 | 34.65111 | 126.81393 | 26966 ft | 407 kts | 355° |
| 2026-05-01 09:47 | 34.67922 | 126.81696 | 26966 ft | 407 kts | 355° |
| 2026-05-01 09:47 | 34.70721 | 126.81994 | 26966 ft | 406 kts | 355° |
| 2026-05-01 09:47 | 34.73542 | 126.82295 | 26966 ft | 406 kts | 355° |
| 2026-05-01 09:48 | 34.76353 | 126.82598 | 26966 ft | 406 kts | 355° |
| 2026-05-01 09:48 | 34.79179 | 126.82900 | 26966 ft | 405 kts | 355° |
| 2026-05-01 09:48 | 34.82003 | 126.83201 | 26964 ft | 405 kts | 355° |
| 2026-05-01 09:48 | 34.84795 | 126.83500 | 26964 ft | 405 kts | 356° |
| 2026-05-01 09:49 | 34.87478 | 126.83791 | 26963 ft | 404 kts | 356° |
| 2026-05-01 09:49 | 34.90260 | 126.84090 | 26962 ft | 404 kts | 356° |
| 2026-05-01 09:49 | 34.93074 | 126.84395 | 26961 ft | 404 kts | 356° |
| 2026-05-01 09:49 | 34.95889 | 126.84697 | 26960 ft | 404 kts | 356° |
| 2026-05-01 09:50 | 34.98682 | 126.84998 | 26959 ft | 405 kts | 356° |
| 2026-05-01 09:50 | 35.01500 | 126.85302 | 26958 ft | 405 kts | 356° |
| 2026-05-01 09:50 | 35.04294 | 126.85605 | 26957 ft | 404 kts | 356° |
| 2026-05-01 09:50 | 35.07116 | 126.85911 | 26957 ft | 404 kts | 356° |
| 2026-05-01 09:51 | 35.09893 | 126.86213 | 26955 ft | 403 kts | 356° |
| 2026-05-01 09:51 | 35.12693 | 126.86517 | 26966 ft | 403 kts | 356° |
| 2026-05-01 09:51 | 35.15506 | 126.86821 | 26968 ft | 403 kts | 356° |
| 2026-05-01 09:51 | 35.18286 | 126.87126 | 26968 ft | 403 kts | 356° |
| 2026-05-01 09:52 | 35.21069 | 126.87431 | 26969 ft | 403 kts | 356° |
| 2026-05-01 09:52 | 35.23879 | 126.87734 | 26970 ft | 403 kts | 356° |
| 2026-05-01 09:52 | 35.26654 | 126.88036 | 26968 ft | 403 kts | 356° |
| 2026-05-01 09:52 | 35.29462 | 126.88339 | 26968 ft | 402 kts | 356° |
| 2026-05-01 09:53 | 35.32235 | 126.88639 | 26965 ft | 402 kts | 356° |
| 2026-05-01 09:53 | 35.35047 | 126.88945 | 26964 ft | 402 kts | 356° |
| 2026-05-01 09:53 | 35.37842 | 126.89252 | 26963 ft | 402 kts | 356° |
| 2026-05-01 09:53 | 35.40637 | 126.89558 | 26963 ft | 402 kts | 356° |
| 2026-05-01 09:54 | 35.43431 | 126.89861 | 26884 ft | 404 kts | 356° |
| 2026-05-01 09:54 | 35.46223 | 126.90163 | 26660 ft | 402 kts | 356° |
| 2026-05-01 09:54 | 35.49030 | 126.90472 | 26370 ft | 399 kts | 356° |
| 2026-05-01 09:54 | 35.51776 | 126.90774 | 26083 ft | 395 kts | 356° |
| 2026-05-01 09:55 | 35.54475 | 126.91069 | 25812 ft | 392 kts | 356° |
| 2026-05-01 09:55 | 35.57182 | 126.91365 | 25512 ft | 391 kts | 356° |
| 2026-05-01 09:55 | 35.59919 | 126.91664 | 25179 ft | 390 kts | 356° |
| 2026-05-01 09:55 | 35.62582 | 126.91955 | 24854 ft | 389 kts | 356° |
| 2026-05-01 09:56 | 35.65271 | 126.92249 | 24525 ft | 388 kts | 357° |
| 2026-05-01 09:56 | 35.67976 | 126.92546 | 24195 ft | 387 kts | 357° |
| 2026-05-01 09:56 | 35.70668 | 126.92841 | 23867 ft | 386 kts | 357° |
| 2026-05-01 09:56 | 35.73318 | 126.93132 | 23545 ft | 385 kts | 357° |
| 2026-05-01 09:57 | 35.75986 | 126.93425 | 23219 ft | 385 kts | 358° |
| 2026-05-01 09:57 | 35.78643 | 126.93716 | 22895 ft | 384 kts | 358° |
| 2026-05-01 09:57 | 35.81316 | 126.94012 | 22569 ft | 382 kts | 358° |
| 2026-05-01 09:57 | 35.83974 | 126.94304 | 22243 ft | 381 kts | 358° |
| 2026-05-01 09:58 | 35.86590 | 126.94592 | 21921 ft | 380 kts | 358° |
| 2026-05-01 09:58 | 35.89213 | 126.94881 | 21599 ft | 378 kts | 358° |
| 2026-05-01 09:58 | 35.91833 | 126.95171 | 21279 ft | 376 kts | 358° |
| 2026-05-01 09:58 | 35.94451 | 126.95461 | 20957 ft | 374 kts | 359° |
| 2026-05-01 09:59 | 35.97019 | 126.95744 | 20639 ft | 372 kts | 359° |
| 2026-05-01 09:59 | 35.99596 | 126.96030 | 20317 ft | 370 kts | 359° |
| 2026-05-01 09:59 | 36.02162 | 126.96313 | 19993 ft | 369 kts | 359° |
| 2026-05-01 09:59 | 36.04728 | 126.96597 | 19668 ft | 367 kts | 359° |
| 2026-05-01 10:00 | 36.07242 | 126.96876 | 19348 ft | 366 kts | 359° |
| 2026-05-01 10:00 | 36.09772 | 126.97156 | 19029 ft | 364 kts | 359° |
| 2026-05-01 10:00 | 36.12298 | 126.97437 | 18728 ft | 362 kts | 359° |
| 2026-05-01 10:00 | 36.14820 | 126.97716 | 18425 ft | 360 kts | 359° |
| 2026-05-01 10:01 | 36.17330 | 126.97996 | 18122 ft | 358 kts | 360° |
| 2026-05-01 10:01 | 36.19793 | 126.98270 | 17814 ft | 357 kts | 360° |
| 2026-05-01 10:01 | 36.22303 | 126.98549 | 17490 ft | 355 kts | 360° |
| 2026-05-01 10:01 | 36.24762 | 126.98823 | 17171 ft | 353 kts | 0° |
| 2026-05-01 10:02 | 36.27210 | 126.99095 | 16849 ft | 352 kts | 0° |
| 2026-05-01 10:02 | 36.29646 | 126.99367 | 16524 ft | 350 kts | 0° |
| 2026-05-01 10:02 | 36.32053 | 126.99635 | 16199 ft | 348 kts | 0° |
| 2026-05-01 10:02 | 36.34473 | 126.99965 | 15867 ft | 349 kts | 6° |
| 2026-05-01 10:03 | 36.36843 | 127.00730 | 15538 ft | 350 kts | 11° |
| 2026-05-01 10:03 | 36.39163 | 127.01585 | 15212 ft | 348 kts | 11° |
| 2026-05-01 10:03 | 36.41496 | 127.02442 | 14942 ft | 344 kts | 11° |
| 2026-05-01 10:03 | 36.43806 | 127.03283 | 14876 ft | 344 kts | 11° |
| 2026-05-01 10:04 | 36.46104 | 127.04108 | 14646 ft | 343 kts | 11° |
| 2026-05-01 10:04 | 36.48376 | 127.04916 | 14398 ft | 340 kts | 11° |
| 2026-05-01 10:04 | 36.50662 | 127.05721 | 14149 ft | 338 kts | 11° |
| 2026-05-01 10:04 | 36.52945 | 127.06519 | 13902 ft | 336 kts | 11° |
| 2026-05-01 10:05 | 36.55168 | 127.07289 | 13659 ft | 334 kts | 11° |
| 2026-05-01 10:05 | 36.57416 | 127.08062 | 13411 ft | 333 kts | 11° |
| 2026-05-01 10:05 | 36.59654 | 127.08823 | 13162 ft | 331 kts | 11° |
| 2026-05-01 10:05 | 36.61895 | 127.09577 | 12912 ft | 330 kts | 11° |
| 2026-05-01 10:06 | 36.64095 | 127.10310 | 12665 ft | 329 kts | 11° |
| 2026-05-01 10:06 | 36.66331 | 127.11045 | 12413 ft | 327 kts | 11° |
| 2026-05-01 10:06 | 36.68545 | 127.11765 | 12163 ft | 325 kts | 11° |
| 2026-05-01 10:06 | 36.70707 | 127.12464 | 11997 ft | 313 kts | 11° |
| 2026-05-01 10:07 | 36.72786 | 127.13135 | 11981 ft | 303 kts | 11° |
| 2026-05-01 10:07 | 36.74818 | 127.13786 | 11983 ft | 302 kts | 11° |
| 2026-05-01 10:07 | 36.76884 | 127.14441 | 11983 ft | 302 kts | 11° |
| 2026-05-01 10:07 | 36.78932 | 127.15030 | 11954 ft | 301 kts | 6° |
| 2026-05-01 10:08 | 36.83089 | 127.15394 | 11411 ft | 290 kts | 1° |
| 2026-05-01 10:08 | 36.85070 | 127.15515 | 11169 ft | 283 kts | 1° |
| 2026-05-01 10:08 | 36.87041 | 127.15637 | 10926 ft | 283 kts | 1° |
| 2026-05-01 10:09 | 36.88996 | 127.15759 | 10682 ft | 281 kts | 1° |
| 2026-05-01 10:09 | 36.90953 | 127.15884 | 10427 ft | 274 kts | 1° |
| 2026-05-01 10:09 | 36.92831 | 127.16006 | 10176 ft | 267 kts | 1° |
| 2026-05-01 10:09 | 36.94663 | 127.16132 | 9926 ft | 261 kts | 1° |
| 2026-05-01 10:10 | 36.96450 | 127.16257 | 9680 ft | 260 kts | 1° |
| 2026-05-01 10:10 | 36.98288 | 127.16390 | 9424 ft | 262 kts | 1° |
| 2026-05-01 10:10 | 37.01925 | 127.16664 | 8881 ft | 263 kts | 360° |
| 2026-05-01 10:11 | 37.03728 | 127.16538 | 8516 ft | 262 kts | 352° |
| 2026-05-01 10:11 | 37.05547 | 127.16266 | 8186 ft | 260 kts | 351° |
| 2026-05-01 10:11 | 37.07319 | 127.15996 | 7907 ft | 257 kts | 351° |
| 2026-05-01 10:11 | 37.09104 | 127.15732 | 7624 ft | 254 kts | 351° |
| 2026-05-01 10:12 | 37.10837 | 127.15482 | 7352 ft | 251 kts | 351° |
| 2026-05-01 10:12 | 37.12580 | 127.15237 | 7065 ft | 249 kts | 351° |
| 2026-05-01 10:12 | 37.16026 | 127.14771 | 6507 ft | 246 kts | 351° |
| 2026-05-01 10:13 | 37.17747 | 127.14542 | 6259 ft | 247 kts | 351° |
| 2026-05-01 10:13 | 37.19464 | 127.14319 | 6015 ft | 246 kts | 351° |
| 2026-05-01 10:13 | 37.21163 | 127.14101 | 5774 ft | 246 kts | 351° |
| 2026-05-01 10:14 | 37.24558 | 127.13675 | 5387 ft | 237 kts | 351° |
| 2026-05-01 10:14 | 37.26200 | 127.13477 | 5252 ft | 234 kts | 351° |
| 2026-05-01 10:14 | 37.27781 | 127.13099 | 5102 ft | 231 kts | 333° |
| 2026-05-01 10:14 | 37.29069 | 127.11923 | 5008 ft | 229 kts | 317° |
| 2026-05-01 10:15 | 37.30243 | 127.10546 | 4995 ft | 230 kts | 315° |
| 2026-05-01 10:15 | 37.31399 | 127.09152 | 4997 ft | 231 kts | 315° |
| 2026-05-01 10:15 | 37.32562 | 127.07735 | 4994 ft | 231 kts | 315° |
| 2026-05-01 10:15 | 37.33704 | 127.06334 | 4989 ft | 231 kts | 315° |
| 2026-05-01 10:16 | 37.34868 | 127.04899 | 4985 ft | 231 kts | 315° |
| 2026-05-01 10:16 | 37.35991 | 127.03510 | 4983 ft | 219 kts | 314° |
| 2026-05-01 10:16 | 37.38121 | 127.00871 | 4591 ft | 213 kts | 314° |
| 2026-05-01 10:17 | 37.39163 | 126.99574 | 4331 ft | 209 kts | 314° |
| 2026-05-01 10:17 | 37.41214 | 126.97024 | 3831 ft | 203 kts | 314° |
| 2026-05-01 10:17 | 37.42204 | 126.95791 | 3586 ft | 198 kts | 314° |
| 2026-05-01 10:18 | 37.44110 | 126.93420 | 3091 ft | 185 kts | 314° |
| 2026-05-01 10:18 | 37.45010 | 126.92300 | 2854 ft | 176 kts | 314° |
| 2026-05-01 10:18 | 37.45850 | 126.91254 | 2648 ft | 167 kts | 314° |
| 2026-05-01 10:19 | 37.46683 | 126.90216 | 2417 ft | 166 kts | 314° |
| 2026-05-01 10:19 | 37.47492 | 126.89211 | 2183 ft | 158 kts | 313° |
| 2026-05-01 10:19 | 37.48260 | 126.88252 | 1966 ft | 154 kts | 313° |
| 2026-05-01 10:20 | 37.49719 | 126.86435 | 1546 ft | 137 kts | 313° |
| 2026-05-01 10:20 | 37.50388 | 126.85599 | 1353 ft | 134 kts | 313° |
| 2026-05-01 10:20 | 37.51053 | 126.84769 | 1166 ft | 136 kts | 313° |
| 2026-05-01 10:20 | 37.51733 | 126.83923 | 972 ft | 138 kts | 313° |
| 2026-05-01 10:21 | 37.52433 | 126.83068 | 749 ft | 139 kts | 312° |
| 2026-05-01 10:21 | 37.53804 | 126.81350 | 371 ft | 139 kts | 312° |
| 2026-05-01 10:21 | 37.54487 | 126.80496 | 186 ft | 137 kts | 311° |
| 2026-05-01 10:22 | 37.55667 | 126.79015 | 74 ft | 82 kts | 315° |
| 2026-05-01 10:22 | 37.56157 | 126.78432 | 74 ft | 23 kts | 331° |
| 2026-05-01 10:23 | 37.56293 | 126.78357 | 74 ft | 15 kts | 345° |
| 2026-05-01 10:23 | 37.56461 | 126.78343 | 74 ft | 5 kts | 19° |
| 2026-05-01 10:23 | 37.56469 | 126.78348 | 74 ft | 0 kts | 25° |
| 2026-05-01 10:25 | 37.56481 | 126.78355 | 74 ft | 4 kts | 30° |
| 2026-05-01 10:25 | 37.56598 | 126.78489 | 74 ft | 15 kts | 45° |
| 2026-05-01 10:26 | 37.56659 | 126.78568 | 74 ft | 7 kts | 49° |
| 2026-05-01 10:26 | 37.56665 | 126.78626 | 74 ft | 7 kts | 109° |
| 2026-05-01 10:26 | 37.56592 | 126.78728 | 74 ft | 8 kts | 135° |
| 2026-05-01 10:27 | 37.56488 | 126.78859 | 74 ft | 14 kts | 135° |
| 2026-05-01 10:27 | 37.56312 | 126.79075 | 74 ft | 18 kts | 135° |
| 2026-05-01 10:28 | 37.56221 | 126.79188 | 74 ft | 17 kts | 135° |
| 2026-05-01 10:28 | 37.56048 | 126.79408 | 74 ft | 17 kts | 135° |
| 2026-05-01 10:28 | 37.55972 | 126.79502 | 74 ft | 11 kts | 135° |
| 2026-05-01 10:29 | 37.55930 | 126.79691 | 74 ft | 11 kts | 98° |
| 2026-05-01 10:29 | 37.55918 | 126.79797 | 74 ft | 12 kts | 98° |
| 2026-05-01 10:30 | 37.55872 | 126.79992 | 74 ft | 11 kts | 133° |
| 2026-05-01 10:30 | 37.55758 | 126.80135 | 74 ft | 11 kts | 135° |
| 2026-05-01 10:31 | 37.55709 | 126.80251 | 74 ft | 6 kts | 54° |
| 2026-05-01 10:31 | 37.55753 | 126.80311 | 74 ft | 0 kts | 46° |